This is the latest recevied weather packets stored in our database for station/object KA6AKH-13. If no packets are shown the sender has not sent any weather packets the latest 10 day(s).
| Time | Temp. | Humidity | Pressure | Rain* | Wind** | Luminosity | Snow |
|---|---|---|---|---|---|---|---|
| 1777644134 | 13.33° C | 56% | 1015 hPa | 0 mm | - | - | - |
| 1777641674 | 12.22° C | 66% | 1015.2 hPa | 0 mm | - | - | - |
| 1777641074 | 12.22° C | 65% | 1015.2 hPa | 0 mm | - | - | - |
| 1777640445 | 12.22° C | 66% | 1015.3 hPa | 0 mm | - | - | - |
| 1777638614 | 11.11° C | 72% | 1015.4 hPa | 0 mm | - | - | - |
| 1777636785 | 9.44° C | 78% | 1015.5 hPa | 0 mm | - | - | - |
| 1777635524 | 8.89° C | 82% | 1015.5 hPa | 0 mm | - | - | - |
| 1777634265 | 7.22° C | 88% | 1015.1 hPa | 0 mm | - | - | - |
| 1777633316 | 6.67° C | 89% | 1015 hPa | 0 mm | - | - | - |
| 1777633034 | 6.67° C | 89% | 1015 hPa | 0 mm | - | - | - |
| 1777632966 | 6.67° C | 89% | 1015 hPa | 0 mm | - | - | - |
| 1777632404 | 6.67° C | 89% | 1015 hPa | 0 mm | - | - | - |
| 1777631774 | 6.67° C | 88% | 1015 hPa | 0 mm | - | - | - |
| 1777631174 | 6.67° C | 89% | 1014.9 hPa | 0 mm | - | - | - |
| 1777630544 | 6.67° C | 89% | 1014.8 hPa | 0 mm | - | - | - |
| 1777626823 | 6.67° C | 87% | 1014.7 hPa | 0 mm | - | - | - |
| 1777626281 | 6.67° C | 87% | 1014.8 hPa | 0 mm | - | - | - |
| 1777626224 | 6.67° C | 87% | 1014.8 hPa | 0 mm | - | - | - |
| 1777624994 | 7.22° C | 85% | 1014.5 hPa | 0 mm | - | - | - |
| 1777624393 | 7.22° C | 84% | 1014.6 hPa | 0 mm | - | - | - |
| 1777623793 | 7.22° C | 84% | 1014.5 hPa | 0 mm | - | - | - |
| 1777623260 | 7.22° C | 83% | 1014.5 hPa | 0 mm | - | - | - |
| 1777623163 | 7.22° C | 83% | 1014.5 hPa | 0 mm | - | - | - |
| 1777621963 | 7.78° C | 82% | 1014.3 hPa | 0 mm | - | - | - |
| 1777621333 | 7.78° C | 82% | 1014.3 hPa | 0 mm | - | - | - |
* Rain latest hour (hover to see other rain measurements)
** Current wind speed in m/s (hover to see current wind gust speed)